createdAt,value
2022-07-31T00:01:40.785Z,100518.59
2022-07-31T00:06:43.716Z,100511.31
2022-07-31T00:11:45.838Z,100507.06
2022-07-31T00:16:47.423Z,100499.47
2022-07-31T00:21:49.012Z,100501.28
2022-07-31T00:26:52.996Z,100497.25
2022-07-31T00:31:54.647Z,100481.41
2022-07-31T00:36:56.186Z,100487.13
2022-07-31T00:41:58.193Z,100492.31
2022-07-31T00:46:59.897Z,100497.44
2022-07-31T00:52:03.695Z,100495.66
2022-07-31T00:57:06.810Z,100491.09
2022-07-31T01:02:08.667Z,100492.38
2022-07-31T01:07:10.590Z,100499.69
2022-07-31T01:12:18.761Z,100497.16
2022-07-31T01:17:25.290Z,100501.78
2022-07-31T01:22:57.642Z,100505.72
2022-07-31T01:28:24.206Z,100507.50
2022-07-31T01:38:57.641Z,100513.91
2022-07-31T01:44:01.100Z,100516.28
2022-07-31T01:49:03.865Z,100507.81
2022-07-31T01:54:07.302Z,100502.50
2022-07-31T01:59:17.076Z,100510.44
2022-07-31T02:04:47.091Z,100498.22
2022-07-31T02:09:58.110Z,100498.09
2022-07-31T02:15:09.073Z,100507.13
2022-07-31T02:20:14.260Z,100499.00
2022-07-31T02:25:17.128Z,100503.59
2022-07-31T02:30:19.191Z,100515.16
2022-07-31T02:35:25.762Z,100512.63
2022-07-31T02:40:27.564Z,100509.53
2022-07-31T02:45:29.772Z,100513.31
2022-07-31T02:50:32.532Z,100511.91
2022-07-31T02:55:35.340Z,100501.53
2022-07-31T03:00:37.264Z,100497.50
2022-07-31T03:05:39.122Z,100492.75
2022-07-31T03:10:40.687Z,100488.00
2022-07-31T03:15:43.850Z,100484.91
2022-07-31T03:20:54.830Z,100495.56
2022-07-31T03:25:58.230Z,100496.06
2022-07-31T03:30:59.855Z,100490.31
2022-07-31T03:36:05.677Z,100494.41
2022-07-31T03:41:07.272Z,100483.63
2022-07-31T03:46:10.085Z,100497.97
2022-07-31T03:51:13.315Z,100488.97
2022-07-31T03:56:16.213Z,100494.09
2022-07-31T04:01:19.008Z,100494.25
2022-07-31T04:06:22.911Z,100504.38
2022-07-31T04:11:24.544Z,100502.44
2022-07-31T04:16:26.158Z,100488.66
2022-07-31T04:21:27.815Z,100491.66
2022-07-31T04:26:30.977Z,100496.78
2022-07-31T04:31:35.847Z,100506.75
2022-07-31T04:36:39.580Z,100514.16
2022-07-31T04:41:41.140Z,100529.31
2022-07-31T04:46:43.903Z,100531.19
2022-07-31T04:51:45.760Z,100530.25
2022-07-31T04:56:48.499Z,100538.47
2022-07-31T05:01:51.134Z,100545.59
2022-07-31T05:06:56.605Z,100556.06
2022-07-31T05:11:59.233Z,100549.88
2022-07-31T05:17:01.664Z,100546.66
2022-07-31T05:22:18.821Z,100547.09
2022-07-31T05:27:39.046Z,100543.66
2022-07-31T05:32:43.047Z,100553.44
2022-07-31T05:37:44.666Z,100553.84
2022-07-31T05:42:46.974Z,100560.81
2022-07-31T05:48:11.854Z,100568.38
2022-07-31T05:53:15.170Z,100576.47
2022-07-31T05:58:48.841Z,100595.88
2022-07-31T06:03:52.033Z,100597.25
2022-07-31T06:09:12.099Z,100605.50
2022-07-31T06:14:17.701Z,100610.94
2022-07-31T06:19:45.457Z,100611.88
2022-07-31T06:24:47.990Z,100615.28
2022-07-31T06:29:49.622Z,100618.66
2022-07-31T06:34:51.197Z,100625.88
2022-07-31T06:39:56.287Z,100636.38
2022-07-31T06:45:48.521Z,100638.75
2022-07-31T06:51:30.282Z,100634.13
2022-07-31T06:56:34.341Z,100656.31
2022-07-31T07:01:36.054Z,100654.91
2022-07-31T07:06:37.788Z,100663.53
2022-07-31T07:11:40.848Z,100673.31
2022-07-31T07:16:42.829Z,100670.47
2022-07-31T07:21:44.459Z,100664.47
2022-07-31T07:26:46.052Z,100690.50
2022-07-31T07:31:47.728Z,100696.34
2022-07-31T07:36:50.273Z,100709.31
2022-07-31T07:41:56.946Z,100730.31
2022-07-31T07:46:58.620Z,100729.66
2022-07-31T07:52:01.687Z,100708.47
2022-07-31T07:57:22.078Z,100714.38
2022-07-31T08:02:44.652Z,100712.47
2022-07-31T08:07:47.556Z,100718.78
2022-07-31T08:13:06.887Z,100737.78
2022-07-31T08:18:28.489Z,100744.53
2022-07-31T08:23:30.805Z,100744.16
2022-07-31T08:28:32.404Z,100738.97
2022-07-31T08:33:34.502Z,100739.38
2022-07-31T08:38:36.712Z,100738.66
2022-07-31T08:44:04.336Z,100763.31
2022-07-31T08:49:09.911Z,100766.13
2022-07-31T08:54:15.244Z,100760.25
2022-07-31T08:59:17.491Z,100791.41
2022-07-31T09:04:19.234Z,100785.63
2022-07-31T09:09:21.099Z,100764.41
2022-07-31T09:14:48.063Z,100803.16
2022-07-31T09:19:54.811Z,100789.94
2022-07-31T09:25:12.808Z,100793.06
2022-07-31T09:30:15.865Z,100790.34
2022-07-31T09:35:39.916Z,100802.44
2022-07-31T09:40:57.043Z,100805.91
2022-07-31T09:46:17.723Z,100817.88
2022-07-31T09:51:19.339Z,100849.31
2022-07-31T09:56:32.360Z,100889.09
2022-07-31T10:01:36.544Z,100855.88
2022-07-31T10:06:40.049Z,100841.41
2022-07-31T10:11:42.959Z,100821.16
2022-07-31T10:16:49.849Z,100806.09
2022-07-31T10:22:10.723Z,100783.22
2022-07-31T10:27:17.284Z,100876.72
2022-07-31T10:32:19.913Z,100824.53
2022-07-31T10:37:53.419Z,100863.88
2022-07-31T10:43:30.370Z,100880.88
2022-07-31T10:48:53.535Z,100886.97
2022-07-31T10:54:38.943Z,100828.34
2022-07-31T11:00:17.542Z,100824.34
2022-07-31T11:06:01.917Z,100781.28
2022-07-31T11:11:34.794Z,100711.66
2022-07-31T11:16:55.752Z,100631.81
2022-07-31T11:22:33.262Z,100602.47
2022-07-31T11:27:34.938Z,100651.50
2022-07-31T11:32:36.513Z,100608.97
2022-07-31T11:37:57.161Z,100613.84
2022-07-31T11:48:27.421Z,100512.53
2022-07-31T11:53:29.563Z,100544.72
2022-07-31T11:58:31.201Z,100540.78
2022-07-31T12:03:36.323Z,100571.03
2022-07-31T12:08:39.417Z,100604.91
2022-07-31T12:13:46.264Z,100631.66
2022-07-31T12:18:52.299Z,100648.50
2022-07-31T12:23:54.066Z,100666.19
2022-07-31T12:29:02.826Z,100658.00
2022-07-31T12:34:04.971Z,100591.25
2022-07-31T12:39:06.576Z,100591.59
2022-07-31T12:44:13.440Z,100640.56
2022-07-31T12:49:16.764Z,100573.44
2022-07-31T12:54:18.407Z,100540.13
2022-07-31T12:59:19.965Z,100592.91
2022-07-31T13:04:21.521Z,100573.66
2022-07-31T13:09:23.257Z,100551.50
2022-07-31T13:14:25.182Z,100548.25
2022-07-31T13:19:27.364Z,100575.47
2022-07-31T13:24:29.019Z,100566.75
2022-07-31T13:29:30.598Z,100543.16
2022-07-31T13:34:32.183Z,100555.88
2022-07-31T13:39:33.765Z,100547.88
2022-07-31T13:44:35.368Z,100566.00
2022-07-31T13:49:37.172Z,100610.75
2022-07-31T13:54:38.820Z,100613.03
2022-07-31T13:59:40.405Z,100555.78
2022-07-31T14:04:41.971Z,100495.09
2022-07-31T14:09:51.422Z,100502.75
2022-07-31T14:14:56.888Z,100430.25
2022-07-31T14:19:58.579Z,100439.22
2022-07-31T14:25:00.186Z,100422.69
2022-07-31T14:30:01.927Z,100432.28
2022-07-31T14:35:08.162Z,100448.53
2022-07-31T14:40:11.017Z,100439.03
2022-07-31T14:45:12.753Z,100449.25
2022-07-31T14:50:19.241Z,100453.34
2022-07-31T14:55:23.096Z,100453.97
2022-07-31T15:00:27.791Z,100444.75
2022-07-31T15:06:41.099Z,100480.50
2022-07-31T15:10:51.367Z,100476.25
2022-07-31T15:15:52.952Z,100486.19
2022-07-31T15:20:54.571Z,100475.81
2022-07-31T15:25:56.279Z,100473.69
2022-07-31T15:31:01.007Z,100424.53
2022-07-31T15:36:02.924Z,100387.47
2022-07-31T15:41:04.796Z,100409.72
2022-07-31T15:46:10.097Z,100409.69
2022-07-31T15:51:11.766Z,100402.09
2022-07-31T15:56:13.400Z,100357.19
2022-07-31T16:01:15.006Z,100339.13
2022-07-31T16:06:16.667Z,100320.88
2022-07-31T16:11:20.159Z,100290.34
2022-07-31T16:16:21.751Z,100277.66
2022-07-31T16:21:23.356Z,100272.22
2022-07-31T16:26:24.991Z,100290.69
2022-07-31T16:31:30.340Z,100313.94
2022-07-31T16:36:32.633Z,100301.22
2022-07-31T16:41:34.214Z,100295.75
2022-07-31T16:46:35.801Z,100393.25
2022-07-31T16:51:37.406Z,100409.72
2022-07-31T16:56:38.980Z,100451.81
2022-07-31T17:01:57.956Z,100474.84
2022-07-31T17:07:02.362Z,100468.28
2022-07-31T17:12:04.840Z,100488.09
2022-07-31T17:17:06.984Z,100496.56
2022-07-31T17:22:11.175Z,100477.31
2022-07-31T17:27:13.359Z,100481.47
2022-07-31T17:32:14.963Z,100456.44
2022-07-31T17:37:19.583Z,100440.84
2022-07-31T17:42:23.775Z,100425.81
2022-07-31T17:47:26.796Z,100422.59
2022-07-31T17:52:28.359Z,100417.00
2022-07-31T17:57:30.536Z,100421.38
2022-07-31T18:02:33.184Z,100408.84
2022-07-31T18:07:36.417Z,100398.78
2022-07-31T18:12:57.173Z,100384.53
2022-07-31T18:17:59.832Z,100363.78
2022-07-31T18:23:01.521Z,100338.88
2022-07-31T18:28:03.254Z,100317.25
2022-07-31T18:33:04.881Z,100280.63
2022-07-31T18:38:06.468Z,100265.84
2022-07-31T18:43:09.044Z,100225.66
2022-07-31T18:48:10.661Z,100198.63
2022-07-31T18:53:13.001Z,100178.19
2022-07-31T18:58:14.653Z,100145.72
2022-07-31T19:03:18.405Z,100120.78
2022-07-31T19:08:20.983Z,100099.03
2022-07-31T19:13:22.981Z,100075.34
2022-07-31T19:18:28.789Z,100038.72
2022-07-31T19:23:30.850Z,100005.59
2022-07-31T19:28:33.144Z,99977.38
2022-07-31T19:33:35.132Z,99968.59
2022-07-31T19:38:37.042Z,99970.28
2022-07-31T19:43:38.708Z,99957.66
2022-07-31T19:48:42.523Z,99964.28
2022-07-31T19:53:44.849Z,99968.22
2022-07-31T19:58:46.676Z,99961.13
2022-07-31T20:03:49.947Z,99959.59
2022-07-31T20:08:51.655Z,99962.47
2022-07-31T20:13:53.205Z,99990.69
2022-07-31T20:18:54.788Z,99991.88
2022-07-31T20:23:57.644Z,99999.66
2022-07-31T20:28:59.289Z,100008.56
2022-07-31T20:34:01.003Z,100012.66
2022-07-31T20:39:02.747Z,100017.94
2022-07-31T20:44:04.528Z,100043.31
2022-07-31T20:49:06.156Z,100067.53
2022-07-31T20:54:07.820Z,100092.47
2022-07-31T20:59:09.460Z,100095.59
2022-07-31T21:04:15.543Z,100109.50
2022-07-31T21:09:17.184Z,100117.88
2022-07-31T21:14:18.738Z,100119.28
2022-07-31T21:19:20.392Z,100137.41
2022-07-31T21:24:22.312Z,100154.22
2022-07-31T21:29:27.802Z,100169.53
2022-07-31T21:34:29.662Z,100180.59
2022-07-31T21:39:31.507Z,100201.56
2022-07-31T21:44:33.357Z,100216.13
2022-07-31T21:49:35.381Z,100231.53
2022-07-31T21:54:36.975Z,100239.78
2022-07-31T21:59:38.544Z,100244.44
2022-07-31T22:05:00.106Z,100254.84
2022-07-31T22:10:01.768Z,100259.72
2022-07-31T22:15:09.475Z,100269.84
2022-07-31T22:20:14.359Z,100277.69
2022-07-31T22:25:16.450Z,100280.78
2022-07-31T22:30:19.364Z,100289.50
2022-07-31T22:35:22.005Z,100287.28
2022-07-31T22:40:24.545Z,100292.31
2022-07-31T22:45:26.741Z,100293.44
2022-07-31T22:50:28.425Z,100299.00
2022-07-31T22:55:30.732Z,100299.03
2022-07-31T23:00:32.316Z,100309.13
2022-07-31T23:06:12.200Z,100320.03
2022-07-31T23:10:55.456Z,100331.50
2022-07-31T23:15:57.045Z,100328.75
2022-07-31T23:20:58.590Z,100340.16
2022-07-31T23:26:00.152Z,100338.56
2022-07-31T23:31:01.741Z,100341.34
2022-07-31T23:36:03.558Z,100337.47
2022-07-31T23:41:05.222Z,100345.25
2022-07-31T23:46:07.006Z,100347.75
2022-07-31T23:51:08.797Z,100345.56
2022-07-31T23:56:12.602Z,100347.00
